Time;durP1;ratioP1;P1;durP2;ratioP2;P2;SDS_P1;SDS_P2;PMS_P1;PMS_P2;Temp;Humidity;BMP_temperature;BMP_pressure;BME280_temperature;BME280_humidity;BME280_pressure;Samples;Min_cycle;Max_cycle;Signal;HPM_P1;HPM_P2
2023/03/28 00:00:45;;;;;;;1.60;1.50;;;1.60;99.90;;;;;;5014588;28;20651;-77
2023/03/28 00:03:13;;;;;;;1.70;1.60;;;1.60;99.90;;;;;;5015832;28;20095;-77
2023/03/28 00:05:43;;;;;;;1.70;1.60;;;1.60;99.90;;;;;;5009145;28;20111;-77
2023/03/28 00:08:10;;;;;;;1.80;1.70;;;1.60;99.90;;;;;;5015852;28;20053;-77
2023/03/28 00:10:36;;;;;;;1.60;1.50;;;1.70;99.90;;;;;;5015815;28;20077;-77
2023/03/28 00:13:02;;;;;;;1.80;1.70;;;1.70;99.90;;;;;;5016491;28;20132;-77
2023/03/28 00:15:29;;;;;;;1.60;1.50;;;1.80;99.90;;;;;;4994152;28;20180;-77
2023/03/28 00:17:54;;;;;;;1.60;1.50;;;1.70;99.90;;;;;;5014658;28;20465;-76
2023/03/28 00:20:20;;;;;;;1.77;1.67;;;1.80;99.90;;;;;;5012964;28;20038;-77
2023/03/28 00:22:46;;;;;;;1.60;1.50;;;1.80;99.90;;;;;;5015977;28;20063;-77
2023/03/28 00:25:12;;;;;;;1.70;1.60;;;1.70;99.90;;;;;;5010098;28;20041;-78
2023/03/28 00:27:37;;;;;;;1.70;1.60;;;1.80;99.90;;;;;;5012926;28;20041;-77
2023/03/28 00:30:04;;;;;;;1.60;1.50;;;1.70;99.90;;;;;;5013733;28;20051;-77
2023/03/28 00:32:30;;;;;;;1.60;1.50;;;1.60;99.90;;;;;;5015885;28;20048;-77
2023/03/28 00:34:56;;;;;;;1.70;1.60;;;1.70;99.90;;;;;;5011575;28;20053;-77
2023/03/28 00:37:22;;;;;;;1.73;1.63;;;1.60;99.90;;;;;;5016745;28;20037;-77
2023/03/28 00:39:52;;;;;;;1.55;1.45;;;1.70;99.90;;;;;;5015745;28;20034;-77
2023/03/28 00:42:20;;;;;;;1.52;1.42;;;1.70;99.90;;;;;;5008430;28;20041;-77
2023/03/28 00:44:47;;;;;;;1.70;1.60;;;1.60;99.90;;;;;;5009543;28;20041;-77
2023/03/28 00:47:19;;;;;;;1.60;1.50;;;1.70;99.90;;;;;;5016967;28;20048;-77
2023/03/28 00:49:51;;;;;;;1.60;1.50;;;1.70;99.90;;;;;;5009524;28;20045;-77
2023/03/28 00:52:22;;;;;;;1.60;1.50;;;1.70;99.90;;;;;;5015225;28;20132;-77
2023/03/28 00:54:49;;;;;;;1.70;1.60;;;1.70;99.90;;;;;;5007166;28;20101;-77
2023/03/28 00:57:16;;;;;;;1.75;1.65;;;1.70;99.90;;;;;;5012514;28;20049;-77
2023/03/28 00:59:42;;;;;;;1.60;1.50;;;1.70;99.90;;;;;;5013993;28;20053;-77
2023/03/28 01:02:09;;;;;;;1.70;1.60;;;1.70;99.90;;;;;;5014616;28;20143;-77
2023/03/28 01:04:48;;;;;;;1.75;1.65;;;1.70;99.90;;;;;;5012549;28;20750;-77
2023/03/28 01:07:15;;;;;;;1.70;1.60;;;1.70;99.90;;;;;;5031969;28;20072;-77
2023/03/28 01:09:42;;;;;;;1.70;1.60;;;1.60;99.90;;;;;;5014326;28;20081;-77
2023/03/28 01:12:09;;;;;;;1.60;1.50;;;1.60;99.90;;;;;;5013988;28;20114;-77
2023/03/28 01:14:38;;;;;;;1.60;1.50;;;1.60;99.90;;;;;;4998121;28;20466;-77
2023/03/28 01:17:04;;;;;;;1.70;1.60;;;1.70;99.90;;;;;;5013990;28;20482;-77
2023/03/28 01:19:41;;;;;;;1.60;1.50;;;1.60;99.90;;;;;;5015140;28;20115;-77
2023/03/28 01:22:35;;;;;;;1.70;1.60;;;1.60;99.90;;;;;;5015768;28;20401;-77
2023/03/28 01:25:29;;;;;;;1.60;1.50;;;1.60;99.90;;;;;;5008606;28;20520;-77
2023/03/28 01:28:13;;;;;;;1.85;1.75;;;1.70;99.90;;;;;;5015006;28;20072;-77
2023/03/28 01:30:56;;;;;;;1.70;1.60;;;1.60;99.90;;;;;;5014040;28;20061;-77
2023/03/28 01:33:44;;;;;;;1.60;1.50;;;1.70;99.90;;;;;;5016117;28;20095;-77
2023/03/28 01:36:42;;;;;;;1.70;1.60;;;1.70;99.90;;;;;;4998074;28;20042;-77
2023/03/28 01:39:33;;;;;;;1.60;1.50;;;1.70;99.90;;;;;;5014782;28;20390;-77
2023/03/28 01:41:58;;;;;;;1.60;1.50;;;1.60;99.90;;;;;;5012105;28;20046;-77
2023/03/28 01:44:49;;;;;;;1.58;1.48;;;1.60;99.90;;;;;;5013149;28;20107;-77
2023/03/28 01:47:31;;;;;;;1.50;1.40;;;1.60;99.90;;;;;;5031460;28;20139;-77
2023/03/28 01:50:07;;;;;;;1.60;1.50;;;1.60;99.90;;;;;;5027936;28;20049;-77
2023/03/28 01:53:06;;;;;;;1.60;1.50;;;1.60;99.90;;;;;;5015416;28;20037;-77
2023/03/28 01:55:48;;;;;;;1.70;1.60;;;1.60;99.90;;;;;;5008544;28;20124;-77
2023/03/28 01:58:26;;;;;;;1.70;1.60;;;1.60;99.90;;;;;;5013785;28;20041;-77
2023/03/28 02:01:04;;;;;;;1.50;1.40;;;1.60;99.90;;;;;;5029215;28;20046;-77
2023/03/28 02:03:36;;;;;;;1.60;1.50;;;1.60;99.90;;;;;;5011084;28;20084;-77
2023/03/28 02:06:07;;;;;;;1.70;1.60;;;1.60;99.90;;;;;;5010844;28;20084;-77
2023/03/28 02:08:36;;;;;;;1.70;1.60;;;1.60;99.90;;;;;;5014589;28;20132;-77
2023/03/28 02:11:02;;;;;;;1.60;1.50;;;1.40;99.90;;;;;;5016288;28;20073;-77
2023/03/28 02:14:06;;;;;;;1.60;1.50;;;1.40;99.90;;;;;;5013764;28;20042;-77
2023/03/28 02:16:37;;;;;;;1.67;1.58;;;1.40;99.90;;;;;;4967856;28;20042;-77
2023/03/28 02:19:05;;;;;;;1.67;1.58;;;1.30;99.90;;;;;;5007437;28;20140;-77
2023/03/28 02:21:44;;;;;;;1.67;1.58;;;1.40;99.90;;;;;;5014256;28;20049;-77
2023/03/28 02:24:11;;;;;;;1.67;1.58;;;1.40;99.90;;;;;;4993255;28;20168;-77
2023/03/28 02:26:37;;;;;;;1.70;1.60;;;1.40;99.90;;;;;;5011820;28;20049;-77
2023/03/28 02:29:05;;;;;;;1.70;1.60;;;1.30;99.90;;;;;;5008731;28;20050;-77
2023/03/28 02:31:31;;;;;;;1.70;1.60;;;1.40;99.90;;;;;;5028704;28;20049;-77
2023/03/28 02:33:57;;;;;;;1.80;1.70;;;1.30;99.90;;;;;;5012493;28;20049;-77
2023/03/28 02:36:44;;;;;;;1.52;1.42;;;1.30;99.90;;;;;;5015402;28;20053;-77
2023/03/28 02:39:28;;;;;;;1.75;1.65;;;1.40;99.90;;;;;;5013136;28;20886;-77
2023/03/28 02:42:31;;;;;;;1.52;1.42;;;1.30;99.90;;;;;;5015362;28;20045;-77
2023/03/28 02:45:29;;;;;;;1.50;1.40;;;1.30;99.90;;;;;;5014322;28;20111;-77
2023/03/28 02:48:09;;;;;;;1.60;1.50;;;1.30;99.90;;;;;;5014018;28;20547;-78
2023/03/28 02:50:53;;;;;;;1.60;1.50;;;1.30;99.90;;;;;;5028087;28;20115;-77
2023/03/28 02:53:31;;;;;;;1.70;1.60;;;1.30;99.90;;;;;;5013505;28;20042;-77
2023/03/28 02:56:16;;;;;;;1.60;1.50;;;1.20;99.90;;;;;;5011317;28;20759;-77
2023/03/28 02:58:45;;;;;;;1.63;1.52;;;1.30;99.90;;;;;;5014084;28;20044;-77
2023/03/28 03:01:13;;;;;;;1.70;1.60;;;1.30;99.90;;;;;;5013939;28;20041;-77
2023/03/28 03:03:40;;;;;;;1.60;1.50;;;1.20;99.90;;;;;;5017216;28;20621;-77
2023/03/28 03:06:06;;;;;;;1.70;1.60;;;1.10;99.90;;;;;;5010940;28;20041;-77
2023/03/28 03:08:33;;;;;;;1.50;1.40;;;1.10;99.90;;;;;;5016368;28;20486;-77
2023/03/28 03:10:59;;;;;;;1.60;1.50;;;1.10;99.90;;;;;;5017456;28;20183;-77
2023/03/28 03:13:24;;;;;;;1.60;1.50;;;1.00;99.90;;;;;;5018787;28;20045;-77
2023/03/28 03:15:53;;;;;;;1.77;1.67;;;1.10;99.90;;;;;;5012427;28;20037;-77
2023/03/28 03:18:19;;;;;;;1.70;1.60;;;1.00;99.90;;;;;;5018847;28;20049;-77
2023/03/28 03:20:44;;;;;;;1.70;1.60;;;1.00;99.90;;;;;;5018484;28;20049;-77
2023/03/28 03:23:11;;;;;;;1.58;1.48;;;1.10;99.90;;;;;;5016283;28;20509;-77
2023/03/28 03:25:38;;;;;;;1.90;1.80;;;1.10;99.90;;;;;;5015403;28;20769;-77
2023/03/28 03:28:03;;;;;;;1.70;1.60;;;1.10;99.90;;;;;;5018928;28;20132;-77
2023/03/28 03:30:29;;;;;;;1.70;1.60;;;1.00;99.90;;;;;;5016644;28;20050;-77
2023/03/28 03:32:55;;;;;;;1.60;1.50;;;1.00;99.90;;;;;;5019816;28;20049;-77
2023/03/28 03:35:22;;;;;;;1.60;1.50;;;1.20;99.90;;;;;;5016184;28;20123;-77
2023/03/28 03:37:48;;;;;;;1.50;1.40;;;1.20;99.90;;;;;;5019160;28;20049;-77
2023/03/28 03:40:13;;;;;;;1.70;1.60;;;1.10;99.90;;;;;;5018521;28;20042;-77
2023/03/28 03:42:39;;;;;;;1.60;1.50;;;1.10;99.90;;;;;;5017553;28;20048;-77
2023/03/28 03:45:05;;;;;;;1.83;1.73;;;1.10;99.90;;;;;;5017108;28;20049;-77
2023/03/28 03:47:32;;;;;;;1.80;1.70;;;1.10;99.90;;;;;;5015545;28;20397;-77
2023/03/28 03:49:58;;;;;;;1.60;1.50;;;1.10;99.90;;;;;;5019436;28;20041;-77
2023/03/28 03:52:23;;;;;;;1.70;1.60;;;1.10;99.90;;;;;;5018404;28;20111;-77
2023/03/28 03:54:49;;;;;;;1.70;1.60;;;1.10;99.90;;;;;;5015533;28;20037;-77
2023/03/28 03:57:16;;;;;;;1.70;1.60;;;1.10;99.90;;;;;;5016911;28;20072;-77
2023/03/28 03:59:41;;;;;;;1.70;1.60;;;1.10;99.90;;;;;;5019059;28;20057;-77
2023/03/28 04:02:07;;;;;;;1.60;1.50;;;1.10;99.90;;;;;;5017411;28;20120;-77
2023/03/28 04:04:33;;;;;;;1.80;1.70;;;1.10;99.90;;;;;;5016040;28;20057;-77
2023/03/28 04:07:01;;;;;;;1.80;1.70;;;1.10;99.90;;;;;;5017341;28;20076;-77
2023/03/28 04:09:27;;;;;;;1.77;1.67;;;1.00;99.90;;;;;;5014952;28;20057;-77
2023/03/28 04:11:56;;;;;;;1.90;1.80;;;1.10;99.90;;;;;;5017203;28;20041;-77
2023/03/28 04:14:22;;;;;;;1.70;1.60;;;1.10;99.90;;;;;;5012916;28;20053;-77
2023/03/28 04:16:49;;;;;;;1.70;1.60;;;1.10;99.90;;;;;;5016617;28;20044;-77
2023/03/28 04:19:16;;;;;;;1.70;1.60;;;1.00;99.90;;;;;;5017336;28;20041;-77
2023/03/28 04:21:47;;;;;;;1.90;1.80;;;1.00;99.90;;;;;;5001494;28;20111;-78
2023/03/28 04:24:14;;;;;;;1.52;1.42;;;0.90;99.90;;;;;;5014404;28;20505;-77
2023/03/28 04:26:40;;;;;;;1.60;1.50;;;1.00;99.90;;;;;;5016043;28;20048;-77
2023/03/28 04:29:08;;;;;;;1.80;1.70;;;1.00;99.90;;;;;;5016269;28;20495;-77
2023/03/28 04:31:34;;;;;;;1.60;1.50;;;1.00;99.90;;;;;;5000975;28;20107;-77
2023/03/28 04:34:02;;;;;;;1.60;1.50;;;1.00;99.90;;;;;;5014706;28;20412;-77
2023/03/28 04:36:28;;;;;;;1.67;1.58;;;1.00;99.90;;;;;;5016769;28;20047;-78
2023/03/28 04:38:57;;;;;;;1.80;1.70;;;0.90;99.90;;;;;;5016433;28;20046;-77
2023/03/28 04:41:24;;;;;;;1.70;1.60;;;0.90;99.90;;;;;;5017408;28;20152;-78
2023/03/28 04:43:50;;;;;;;1.63;1.52;;;0.90;99.90;;;;;;5013731;28;20389;-77
2023/03/28 04:46:17;;;;;;;1.50;1.40;;;0.80;99.90;;;;;;5015116;28;20045;-77
2023/03/28 04:48:42;;;;;;;1.60;1.50;;;0.80;99.90;;;;;;5012328;28;20148;-77
2023/03/28 04:51:08;;;;;;;1.50;1.40;;;0.80;99.90;;;;;;5002304;28;20049;-77
2023/03/28 04:53:35;;;;;;;1.58;1.48;;;0.80;99.90;;;;;;5005448;28;20053;-78
2023/03/28 04:56:01;;;;;;;1.80;1.70;;;0.80;99.90;;;;;;4999911;28;20045;-77
2023/03/28 04:58:27;;;;;;;1.60;1.50;;;0.70;99.90;;;;;;5002104;28;20045;-77
2023/03/28 05:00:53;;;;;;;1.70;1.60;;;0.70;99.90;;;;;;4988795;28;20111;-77
2023/03/28 05:03:21;;;;;;;1.58;1.48;;;0.70;99.90;;;;;;5003364;28;20045;-77
2023/03/28 05:05:50;;;;;;;1.60;1.50;;;0.70;99.90;;;;;;5005265;28;20883;-77
2023/03/28 05:08:18;;;;;;;1.60;1.50;;;0.80;99.90;;;;;;5013870;28;20473;-78
2023/03/28 05:10:44;;;;;;;1.70;1.60;;;0.90;99.90;;;;;;5019643;28;20183;-78
2023/03/28 05:13:10;;;;;;;1.67;1.58;;;1.00;99.90;;;;;;5003196;28;20041;-77
2023/03/28 05:15:36;;;;;;;1.70;1.60;;;0.90;99.90;;;;;;5003935;28;20053;-78
2023/03/28 05:18:03;;;;;;;1.80;1.70;;;1.00;99.90;;;;;;4987955;28;20083;-77
2023/03/28 05:20:29;;;;;;;1.70;1.60;;;1.10;99.90;;;;;;5005024;28;20382;-77
2023/03/28 05:22:56;;;;;;;1.80;1.70;;;1.00;99.90;;;;;;5006851;28;20076;-77
2023/03/28 05:25:22;;;;;;;1.60;1.50;;;1.00;99.90;;;;;;5007336;28;20052;-77
2023/03/28 05:27:48;;;;;;;1.60;1.50;;;1.10;99.90;;;;;;5015878;28;20979;-76
2023/03/28 05:30:14;;;;;;;1.80;1.70;;;1.30;99.90;;;;;;5014120;28;20056;-76
2023/03/28 05:32:40;;;;;;;1.80;1.70;;;1.30;99.90;;;;;;5016753;28;20045;-77
2023/03/28 05:35:08;;;;;;;1.70;1.60;;;1.40;99.90;;;;;;5014105;28;20398;-77
2023/03/28 05:37:35;;;;;;;1.80;1.70;;;1.50;99.90;;;;;;5014456;28;20478;-75
2023/03/28 05:40:07;;;;;;;1.70;1.60;;;1.60;99.90;;;;;;5000742;28;20807;-77
2023/03/28 05:42:34;;;;;;;1.33;1.30;;;1.80;99.90;;;;;;5012894;28;20621;-76
2023/03/28 05:45:01;;;;;;;1.20;1.20;;;2.10;99.90;;;;;;5012474;28;20037;-76
2023/03/28 05:47:27;;;;;;;1.70;1.60;;;2.10;99.90;;;;;;5015639;28;20045;-77
2023/03/28 05:49:53;;;;;;;1.70;1.60;;;2.40;99.90;;;;;;5033076;28;20111;-76
2023/03/28 05:52:19;;;;;;;1.70;1.60;;;2.90;99.90;;;;;;5004928;28;20398;-77
2023/03/28 05:54:44;;;;;;;1.70;1.60;;;3.30;99.90;;;;;;4997338;28;20548;-77
2023/03/28 05:57:10;;;;;;;1.80;1.70;;;3.30;99.90;;;;;;4999874;28;20277;-76
2023/03/28 05:59:40;;;;;;;1.60;1.50;;;3.50;99.90;;;;;;5000514;28;20128;-77
2023/03/28 06:02:13;;;;;;;1.73;1.63;;;3.20;99.90;;;;;;5000344;28;20057;-77
2023/03/28 06:04:38;;;;;;;1.50;1.40;;;3.20;99.90;;;;;;4996757;28;20477;-77
2023/03/28 06:07:05;;;;;;;1.35;1.35;;;3.20;99.90;;;;;;5000033;28;20068;-77
2023/03/28 06:09:31;;;;;;;1.30;1.30;;;2.90;99.90;;;;;;5002266;28;20466;-77
2023/03/28 06:11:57;;;;;;;1.48;1.40;;;2.80;99.90;;;;;;5015672;28;20136;-77
2023/03/28 06:14:23;;;;;;;1.42;1.40;;;2.60;99.90;;;;;;5014403;28;20522;-77
2023/03/28 06:16:49;;;;;;;1.60;1.50;;;2.60;99.90;;;;;;5015627;28;20124;-77
2023/03/28 06:19:16;;;;;;;1.40;1.40;;;2.50;99.90;;;;;;5015304;28;20052;-77
2023/03/28 06:21:42;;;;;;;1.30;1.30;;;2.40;99.90;;;;;;5014757;28;20474;-77
2023/03/28 06:24:09;;;;;;;1.60;1.50;;;2.40;99.90;;;;;;5000519;28;20037;-77
2023/03/28 06:26:34;;;;;;;1.50;1.40;;;2.60;99.90;;;;;;5005082;28;20037;-77
2023/03/28 06:29:00;;;;;;;1.70;1.60;;;3.00;99.90;;;;;;5006137;28;20163;-77
2023/03/28 06:31:26;;;;;;;1.70;1.60;;;3.30;99.90;;;;;;5004531;28;20140;-77
2023/03/28 06:33:52;;;;;;;1.65;1.55;;;3.70;99.90;;;;;;5003365;28;20049;-77
2023/03/28 06:36:18;;;;;;;1.70;1.60;;;4.10;99.90;;;;;;5005295;28;20046;-78
2023/03/28 06:38:45;;;;;;;1.40;1.40;;;4.30;99.90;;;;;;5005593;28;20045;-77
2023/03/28 06:41:11;;;;;;;1.33;1.33;;;4.60;99.90;;;;;;5004057;28;20107;-77
2023/03/28 06:43:37;;;;;;;1.30;1.30;;;4.80;99.90;;;;;;5008190;28;20148;-77
2023/03/28 06:46:03;;;;;;;1.20;1.20;;;4.90;99.90;;;;;;5005488;28;20045;-77
2023/03/28 06:48:30;;;;;;;1.10;1.10;;;4.60;99.90;;;;;;5004221;28;20056;-78
2023/03/28 06:50:59;;;;;;;1.20;1.20;;;4.60;99.90;;;;;;4982512;28;20045;-77
2023/03/28 06:53:26;;;;;;;1.10;1.10;;;4.70;99.90;;;;;;5003119;28;20065;-77
2023/03/28 06:55:52;;;;;;;1.00;1.00;;;4.50;99.90;;;;;;5004213;28;20048;-77
2023/03/28 06:58:19;;;;;;;1.00;1.00;;;4.40;99.90;;;;;;5024135;28;20077;-77
2023/03/28 07:00:45;;;;;;;1.08;1.08;;;4.50;99.90;;;;;;5016275;28;20041;-77
2023/03/28 07:03:11;;;;;;;1.00;1.00;;;4.60;99.90;;;;;;5019638;28;20088;-77
2023/03/28 07:05:38;;;;;;;1.05;1.05;;;4.50;99.90;;;;;;5013628;28;20057;-77
2023/03/28 07:08:05;;;;;;;0.93;0.93;;;4.60;99.90;;;;;;5016553;28;20052;-77
2023/03/28 07:10:31;;;;;;;1.05;1.05;;;4.70;99.90;;;;;;5020131;28;20060;-78
2023/03/28 07:12:56;;;;;;;1.00;1.00;;;4.70;99.90;;;;;;5023214;28;20465;-78
2023/03/28 07:15:22;;;;;;;1.00;1.00;;;4.90;99.90;;;;;;5016768;28;20572;-79
2023/03/28 07:17:48;;;;;;;1.10;1.10;;;4.80;99.90;;;;;;5035533;28;20053;-79
2023/03/28 07:20:13;;;;;;;1.15;1.15;;;4.90;99.90;;;;;;5019460;28;20048;-78
2023/03/28 07:22:39;;;;;;;0.90;0.90;;;4.90;99.90;;;;;;5018876;28;20057;-77
2023/03/28 07:25:06;;;;;;;1.00;1.00;;;5.00;99.90;;;;;;5016484;28;20061;-77
2023/03/28 07:27:32;;;;;;;1.00;1.00;;;5.10;99.90;;;;;;5018213;28;20131;-78
2023/03/28 07:29:58;;;;;;;1.00;1.00;;;5.10;99.90;;;;;;5018040;28;20768;-78
2023/03/28 07:32:24;;;;;;;1.00;1.00;;;5.20;99.90;;;;;;5017810;28;20057;-77
2023/03/28 07:34:50;;;;;;;1.00;1.00;;;5.30;99.90;;;;;;5017057;28;20069;-77
2023/03/28 07:37:16;;;;;;;1.00;1.00;;;5.50;99.90;;;;;;5018879;28;20041;-78
2023/03/28 07:39:42;;;;;;;1.00;1.00;;;5.60;99.90;;;;;;5018380;28;20486;-77
2023/03/28 07:42:12;;;;;;;1.10;1.10;;;5.80;99.90;;;;;;5017299;28;20045;-77
2023/03/28 07:44:38;;;;;;;0.90;0.90;;;5.80;99.90;;;;;;5015811;28;20478;-77
2023/03/28 07:47:04;;;;;;;0.90;0.90;;;5.90;99.90;;;;;;5020451;28;20099;-77
2023/03/28 07:49:31;;;;;;;0.90;0.90;;;5.90;99.90;;;;;;5018647;28;20053;-77
2023/03/28 07:51:57;;;;;;;0.90;0.90;;;6.00;99.90;;;;;;5019182;28;20050;-77
2023/03/28 07:54:23;;;;;;;0.90;0.90;;;6.10;99.90;;;;;;5015973;28;20053;-78
2023/03/28 07:56:49;;;;;;;1.00;1.00;;;6.10;99.90;;;;;;5018821;28;20042;-77
2023/03/28 07:59:15;;;;;;;0.90;0.90;;;6.20;99.90;;;;;;5018224;28;20041;-77
2023/03/28 08:01:42;;;;;;;0.93;0.93;;;6.30;99.90;;;;;;5020391;28;20133;-77
2023/03/28 08:04:09;;;;;;;1.10;1.10;;;6.40;99.90;;;;;;5010967;28;20053;-78
2023/03/28 08:06:37;;;;;;;1.00;1.00;;;6.50;99.90;;;;;;5009506;28;20587;-78
2023/03/28 08:09:14;;;;;;;1.00;1.00;;;6.60;99.90;;;;;;5007028;28;20045;-77
2023/03/28 08:11:42;;;;;;;1.00;1.00;;;6.70;99.90;;;;;;5010431;28;20041;-78
2023/03/28 08:14:12;;;;;;;1.00;1.00;;;7.00;99.90;;;;;;5014056;28;20790;-77
2023/03/28 08:16:38;;;;;;;1.00;1.00;;;7.20;99.90;;;;;;5017277;28;20571;-77
2023/03/28 08:19:04;;;;;;;1.00;1.00;;;7.30;99.90;;;;;;5017887;28;20056;-77
2023/03/28 08:21:30;;;;;;;0.90;0.90;;;7.50;99.90;;;;;;5015913;28;20653;-77
2023/03/28 08:24:00;;;;;;;1.00;1.00;;;7.80;99.90;;;;;;5015898;28;20041;-78
2023/03/28 08:26:27;;;;;;;1.00;1.00;;;8.00;99.90;;;;;;5017646;28;20038;-78
2023/03/28 08:28:54;;;;;;;1.00;1.00;;;8.20;99.90;;;;;;5017916;28;20041;-78
2023/03/28 08:31:24;;;;;;;1.00;1.00;;;8.50;99.90;;;;;;5005834;28;20053;-77
2023/03/28 08:33:51;;;;;;;0.90;0.90;;;8.30;99.90;;;;;;5008542;28;20041;-78
2023/03/28 08:36:17;;;;;;;0.90;0.90;;;8.10;99.90;;;;;;5007124;28;20041;-77
2023/03/28 08:38:45;;;;;;;0.90;0.90;;;8.10;99.90;;;;;;4999267;28;20067;-77
2023/03/28 08:41:27;;;;;;;0.80;0.80;;;8.00;99.90;;;;;;5017469;28;20048;-77
2023/03/28 08:43:57;;;;;;;0.85;0.85;;;8.00;99.90;;;;;;5012816;28;20049;-78
2023/03/28 08:46:26;;;;;;;0.80;0.80;;;8.10;99.90;;;;;;5016496;28;20053;-78
2023/03/28 08:48:53;;;;;;;0.80;0.80;;;8.00;99.90;;;;;;5016016;28;20099;-77
2023/03/28 08:51:19;;;;;;;0.80;0.80;;;8.10;99.90;;;;;;5017100;28;20037;-77
2023/03/28 08:53:54;;;;;;;0.80;0.80;;;8.00;99.90;;;;;;5016674;28;20532;-77
2023/03/28 08:56:20;;;;;;;0.90;0.90;;;7.90;99.90;;;;;;5032528;28;20069;-77
2023/03/28 08:58:51;;;;;;;0.80;0.80;;;8.10;99.90;;;;;;5014439;28;20148;-77
2023/03/28 09:01:20;;;;;;;0.90;0.90;;;8.30;99.90;;;;;;5017471;28;20046;-78
2023/03/28 09:03:48;;;;;;;0.90;0.90;;;8.20;99.90;;;;;;5015403;28;20049;-77
2023/03/28 09:06:41;;;;;;;0.90;0.90;;;7.90;99.90;;;;;;5015832;28;20120;-77
2023/03/28 09:09:25;;;;;;;0.80;0.80;;;7.90;99.90;;;;;;5012490;28;20051;-77
2023/03/28 09:12:01;;;;;;;0.80;0.80;;;8.20;99.90;;;;;;5017181;28;20075;-77
2023/03/28 09:14:53;;;;;;;0.80;0.80;;;8.30;99.90;;;;;;5010163;28;20135;-77
2023/03/28 09:17:53;;;;;;;0.80;0.80;;;8.70;99.90;;;;;;5011891;28;20545;-77
2023/03/28 09:20:29;;;;;;;0.80;0.80;;;9.30;99.90;;;;;;5014280;28;20135;-77
2023/03/28 09:23:23;;;;;;;0.82;0.82;;;9.80;99.90;;;;;;5018026;28;20482;-77
2023/03/28 09:25:54;;;;;;;0.80;0.80;;;9.70;99.90;;;;;;5010638;28;20041;-77
2023/03/28 09:28:51;;;;;;;0.90;0.90;;;9.30;99.90;;;;;;5014452;28;20123;-78
2023/03/28 09:31:19;;;;;;;0.90;0.90;;;8.90;99.90;;;;;;5015196;28;20048;-77
2023/03/28 09:33:48;;;;;;;0.90;0.90;;;8.40;99.90;;;;;;5015413;28;20043;-77
2023/03/28 09:36:22;;;;;;;0.90;0.90;;;8.10;99.90;;;;;;5015400;28;20049;-78
2023/03/28 09:38:53;;;;;;;0.90;0.90;;;8.10;99.90;;;;;;5015088;28;20124;-77
2023/03/28 09:41:30;;;;;;;0.90;0.90;;;8.20;99.90;;;;;;5011780;28;20075;-78
2023/03/28 09:44:00;;;;;;;1.00;1.00;;;8.20;99.90;;;;;;5014068;28;20124;-77
2023/03/28 09:46:31;;;;;;;0.90;0.90;;;8.70;99.90;;;;;;5013091;28;20049;-77
2023/03/28 09:48:57;;;;;;;0.90;0.90;;;9.30;99.90;;;;;;5016924;28;20045;-77
2023/03/28 09:51:23;;;;;;;0.80;0.80;;;9.00;99.90;;;;;;5016876;28;20045;-77
2023/03/28 09:53:49;;;;;;;0.90;0.90;;;9.40;99.90;;;;;;5014018;28;20052;-77
2023/03/28 09:56:28;;;;;;;0.90;0.90;;;9.30;99.90;;;;;;5011135;28;20038;-77
2023/03/28 09:59:01;;;;;;;0.90;0.90;;;9.40;99.90;;;;;;5016728;28;20052;-75
2023/03/28 10:01:43;;;;;;;0.90;0.90;;;10.20;99.90;;;;;;5017514;28;20747;-78
2023/03/28 10:04:20;;;;;;;0.90;0.90;;;9.90;99.90;;;;;;5011968;28;20061;-77
2023/03/28 10:06:47;;;;;;;0.90;0.90;;;9.30;99.90;;;;;;5015912;28;20133;-77
2023/03/28 10:09:25;;;;;;;0.90;0.90;;;9.30;99.90;;;;;;5015756;28;20045;-77
2023/03/28 10:11:55;;;;;;;1.00;1.00;;;9.70;99.90;;;;;;5013306;28;20482;-77
2023/03/28 10:14:28;;;;;;;0.80;0.80;;;10.30;99.90;;;;;;5012022;28;20049;-77
2023/03/28 10:16:54;;;;;;;0.90;0.90;;;9.80;99.90;;;;;;5017904;28;20076;-74
2023/03/28 10:19:24;;;;;;;0.80;0.80;;;10.40;99.90;;;;;;5016064;28;20470;-77
2023/03/28 10:21:50;;;;;;;0.70;0.70;;;10.60;99.90;;;;;;5018787;28;20034;-77
2023/03/28 10:24:20;;;;;;;0.70;0.70;;;10.10;99.90;;;;;;5017408;28;20136;-75
2023/03/28 10:26:46;;;;;;;0.80;0.80;;;10.30;99.90;;;;;;5018611;28;20053;-77
2023/03/28 10:29:14;;;;;;;0.70;0.70;;;10.40;99.90;;;;;;5018475;28;20050;-77
2023/03/28 10:31:47;;;;;;;0.70;0.70;;;10.40;99.90;;;;;;5017460;28;20137;-77
2023/03/28 10:34:27;;;;;;;0.80;0.80;;;10.50;99.90;;;;;;5017174;28;20034;-77
2023/03/28 10:36:53;;;;;;;0.80;0.80;;;10.50;99.90;;;;;;5020478;28;20291;-77
2023/03/28 10:39:25;;;;;;;0.70;0.70;;;9.90;99.90;;;;;;5021527;28;20045;-76
2023/03/28 10:41:56;;;;;;;0.80;0.80;;;9.80;99.90;;;;;;5017426;28;20046;-77
2023/03/28 10:44:40;;;;;;;0.80;0.80;;;9.20;99.90;;;;;;4999026;28;20125;-77
2023/03/28 10:47:17;;;;;;;0.80;0.80;;;9.20;99.90;;;;;;5033779;28;20072;-77
2023/03/28 10:49:50;;;;;;;0.80;0.80;;;9.20;99.90;;;;;;5010316;28;20042;-78
2023/03/28 10:52:55;;;;;;;0.70;0.70;;;9.40;99.90;;;;;;5019417;28;20049;-77
2023/03/28 10:55:26;;;;;;;0.70;0.70;;;9.90;99.90;;;;;;4998191;28;20061;-76
2023/03/28 10:58:14;;;;;;;0.70;0.70;;;10.60;99.90;;;;;;5009910;28;20481;-77
2023/03/28 11:00:47;;;;;;;0.70;0.70;;;10.50;99.90;;;;;;5013590;28;20045;-77
2023/03/28 11:03:29;;;;;;;0.70;0.70;;;9.90;99.90;;;;;;5015916;28;20420;-77
2023/03/28 11:06:12;;;;;;;0.70;0.70;;;9.60;99.90;;;;;;5019073;28;20094;-77
2023/03/28 11:08:50;;;;;;;0.90;0.90;;;9.30;99.90;;;;;;4981519;28;20054;-77
2023/03/28 11:11:31;;;;;;;0.80;0.80;;;9.20;99.90;;;;;;5013542;28;20052;-78
2023/03/28 11:14:34;;;;;;;0.80;0.80;;;9.00;99.90;;;;;;5019499;28;20037;-77
2023/03/28 11:17:15;;;;;;;0.80;0.80;;;9.10;99.90;;;;;;5016242;28;20512;-77
2023/03/28 11:20:02;;;;;;;0.80;0.80;;;9.10;99.90;;;;;;5015885;28;20389;-78
2023/03/28 11:22:40;;;;;;;0.80;0.80;;;9.40;99.90;;;;;;5017466;28;20079;-78
2023/03/28 11:25:27;;;;;;;0.70;0.70;;;9.70;99.90;;;;;;5014656;28;20045;-78
2023/03/28 11:28:26;;;;;;;0.80;0.80;;;10.20;99.90;;;;;;5015595;28;20049;-77
2023/03/28 11:30:55;;;;;;;0.75;0.75;;;10.20;99.90;;;;;;4986335;28;20148;-77
2023/03/28 11:33:37;;;;;;;0.80;0.80;;;10.00;99.90;;;;;;5017048;28;20140;-78
2023/03/28 11:36:12;;;;;;;0.77;0.77;;;9.80;99.90;;;;;;4995843;28;20057;-76
2023/03/28 11:38:52;;;;;;;0.80;0.80;;;9.60;99.90;;;;;;5001096;28;20045;-77
2023/03/28 11:41:21;;;;;;;0.80;0.80;;;9.60;99.90;;;;;;5016663;28;20041;-77
2023/03/28 11:44:20;;;;;;;0.80;0.80;;;9.70;99.90;;;;;;5015769;28;20103;-77
2023/03/28 11:47:04;;;;;;;0.80;0.80;;;9.60;99.90;;;;;;5007955;28;20712;-76
2023/03/28 11:49:52;;;;;;;0.80;0.80;;;9.30;99.90;;;;;;5032514;28;20049;-76
2023/03/28 11:52:40;;;;;;;0.80;0.80;;;9.30;99.90;;;;;;5004707;28;20542;-77
2023/03/28 11:55:22;;;;;;;0.80;0.80;;;9.20;99.90;;;;;;5009954;28;20049;-76
2023/03/28 11:58:15;;;;;;;0.80;0.80;;;9.30;99.90;;;;;;4996734;28;20037;-76
2023/03/28 12:00:49;;;;;;;0.80;0.80;;;9.40;99.90;;;;;;5009467;28;20211;-76
2023/03/28 12:03:28;;;;;;;0.80;0.80;;;9.60;99.90;;;;;;5011344;28;20056;-77
2023/03/28 12:05:58;;;;;;;0.80;0.80;;;9.60;99.90;;;;;;5015425;28;20053;-75
2023/03/28 12:08:40;;;;;;;0.90;0.90;;;9.70;99.90;;;;;;4993597;28;20037;-79
2023/03/28 12:11:26;;;;;;;0.70;0.70;;;9.70;99.90;;;;;;5015160;28;20041;-78
2023/03/28 12:14:28;;;;;;;0.80;0.80;;;10.00;99.90;;;;;;5014283;28;20049;-77
2023/03/28 12:16:57;;;;;;;0.80;0.80;;;10.00;99.90;;;;;;5005803;28;20057;-77
2023/03/28 12:19:37;;;;;;;0.80;0.80;;;10.00;99.90;;;;;;5008977;28;20092;-77
2023/03/28 12:22:18;;;;;;;0.80;0.80;;;10.00;99.90;;;;;;5011232;28;20114;-76
2023/03/28 12:25:07;;;;;;;0.70;0.70;;;9.80;99.90;;;;;;5006136;28;20059;-77
2023/03/28 12:27:56;;;;;;;0.80;0.80;;;10.10;99.90;;;;;;5001392;28;20048;-77
2023/03/28 12:30:40;;;;;;;0.70;0.70;;;10.30;99.90;;;;;;5012521;28;20052;-78
2023/03/28 12:33:31;;;;;;;0.70;0.70;;;10.40;99.90;;;;;;5012337;28;20482;-78
2023/03/28 12:36:09;;;;;;;0.70;0.70;;;10.60;99.90;;;;;;5008270;28;20064;-76
2023/03/28 12:38:41;;;;;;;0.70;0.70;;;10.70;99.90;;;;;;5012862;28;20045;-77
2023/03/28 12:41:10;;;;;;;0.60;0.60;;;10.90;99.90;;;;;;5013741;28;20044;-77
2023/03/28 12:43:47;;;;;;;0.60;0.60;;;11.00;99.90;;;;;;5015201;28;20045;-77
2023/03/28 12:46:17;;;;;;;0.60;0.60;;;11.00;99.90;;;;;;5013899;28;20264;-76
2023/03/28 12:48:55;;;;;;;0.60;0.60;;;10.70;99.90;;;;;;5012487;28;20747;-78
2023/03/28 12:51:25;;;;;;;0.60;0.60;;;10.70;99.90;;;;;;4987306;28;20126;-77
2023/03/28 12:54:07;;;;;;;0.60;0.60;;;10.90;99.90;;;;;;5013759;28;20148;-77
2023/03/28 12:56:33;;;;;;;0.60;0.60;;;11.00;99.90;;;;;;5014189;28;20049;-78
2023/03/28 12:58:59;;;;;;;0.50;0.50;;;10.90;99.90;;;;;;4991763;28;20479;-77
2023/03/28 13:01:46;;;;;;;0.60;0.60;;;10.80;99.90;;;;;;5016118;28;20042;-76
2023/03/28 13:04:26;;;;;;;0.60;0.60;;;10.40;99.90;;;;;;5014753;28;20068;-77
2023/03/28 13:07:29;;;;;;;0.60;0.60;;;10.20;99.90;;;;;;5017556;28;20046;-77
2023/03/28 13:10:03;;;;;;;0.60;0.60;;;10.00;99.90;;;;;;5018970;28;20154;-77
2023/03/28 13:12:47;;;;;;;0.63;0.63;;;10.30;99.90;;;;;;5018959;28;20045;-76
2023/03/28 13:15:13;;;;;;;0.70;0.70;;;10.30;99.90;;;;;;5014807;28;20132;-75
2023/03/28 13:18:05;;;;;;;0.60;0.60;;;10.20;99.90;;;;;;5017237;28;20050;-76
2023/03/28 13:20:31;;;;;;;0.60;0.60;;;10.30;99.90;;;;;;5017238;28;20045;-76